Date,TemperatureHighF,TemperatureAvgF,TemperatureLowF,DewpointHighF,DewpointAvgF,DewpointLowF,HumidityHigh,HumidityAvg,HumidityLow,PressureMaxIn,PressureMinIn,WindSpeedMaxMPH,WindSpeedAvgMPH,GustSpeedMaxMPH,PrecipitationSumIn
2013-2-1,52,46,43,-100,-100,-100,0,0,100,30.40,30.31,9,-81,12,0.00
2013-2-2,52,44,39,-100,-100,-100,0,0,100,30.35,30.25,6,-179,8,0.00
2013-2-3,45,42,39,-100,-100,-100,0,0,100,30.35,30.24,9,-31,12,0.00
2013-2-4,52,46,43,-100,-100,-100,0,0,100,30.25,29.94,8,-46,14,0.00
2013-2-5,52,46,44,-100,-100,-100,0,0,100,30.03,29.90,17,-131,27,0.00
2013-2-6,49,46,43,-100,-100,-100,0,0,100,30.09,29.81,16,-244,21,0.00
2013-2-7,48,42,36,-100,-100,-100,0,0,100,30.19,29.87,11,-732,15,0.00
2013-2-8,47,39,33,-100,-100,-100,0,0,100,30.31,30.19,5,-916,7,0.00
2013-2-9,46,41,36,-100,-100,-100,0,0,100,30.32,30.26,6,-519,8,0.00
2013-2-10,46,41,35,-100,-100,-100,0,0,100,30.38,30.31,6,-60,10,0.00
2013-2-11,46,43,41,-100,-100,-100,0,0,100,30.39,30.33,10,-94,13,0.00
2013-2-12,49,46,43,-100,-100,-100,0,0,100,30.47,30.39,8,-298,11,0.00
2013-2-13,50,46,40,-100,-100,-100,0,0,100,30.53,30.41,0,-999,0,0.00
2013-2-14,46,42,38,-100,-100,-100,0,0,100,30.58,30.52,0,-999,0,0.00
2013-2-15,60,48,43,-100,-100,-100,0,0,100,30.54,30.21,0,-999,0,0.00
2013-2-16,50,44,41,-100,-100,-100,0,0,100,30.29,30.21,0,-999,0,0.00
2013-2-17,46,41,37,-100,-100,-100,0,0,100,30.30,30.13,0,-999,0,0.00
2013-2-18,45,41,37,-100,-100,-100,0,0,100,30.12,29.75,0,-999,0,0.00
2013-2-19,51,44,38,-100,-100,-100,0,0,100,30.02,29.72,0,-999,0,0.00
2013-2-20,44,40,35,-100,-100,-100,0,0,100,30.09,30.00,0,-999,0,0.00
2013-2-21,45,43,40,-100,-100,-100,0,0,100,30.16,30.06,0,-999,0,0.00
2013-2-22,48,43,38,-100,-100,-100,0,0,100,30.15,29.85,0,-999,0,0.00
2013-2-23,47,42,38,-100,-100,-100,0,0,100,30.44,30.04,0,-999,0,0.00
2013-2-24,48,43,39,-100,-100,-100,0,0,100,30.44,30.01,0,-999,0,0.00
2013-2-25,47,42,39,-100,-100,-100,0,0,100,30.37,29.99,0,-999,0,0.00
2013-2-26,46,42,37,-100,-100,-100,0,0,100,30.40,30.24,19,-300,24,0.00
2013-2-27,49,47,44,-100,-100,-100,0,0,100,30.31,30.24,17,-6,26,0.00
2013-2-28,54,50,46,-100,-100,-100,0,0,100,30.40,30.18,15,-28,20,0.00